< < Back
Terminal Aerodrome Forecast


Current Version              Previous Versions:   1  2  3  4  5  6  7  8  9  

Terminal Aerodrome Forecast

147
FTUS42 KCAE 240526
TAFAGS
TAF
KAGS 240526Z 2406/2506 VRB03KT P6SM SKC
     FM241400 11008KT P6SM SCT035
     FM250000 VRB03KT P6SM SCT080=

Latest METAR

723
SAUS70 KWBC 241300 RRO
MTRAGS
METAR KAGS 241253Z 09005KT 10SM CLR 21/16 A3036 RMK AO2 SLP281
T02060156


USA.gov is the U.S. government's official web portal to all federal, state and local government web resources and services.